createdAt,value
2018-07-05T00:00:59.639Z,55.70
2018-07-05T00:05:14.326Z,56.90
2018-07-05T00:09:29.065Z,56.90
2018-07-05T00:13:43.651Z,56.20
2018-07-05T00:17:58.193Z,55.70
2018-07-05T00:22:12.740Z,55.80
2018-07-05T00:26:27.333Z,56.50
2018-07-05T00:30:42.221Z,57.50
2018-07-05T00:34:57.028Z,58.20
2018-07-05T00:39:11.706Z,58.80
2018-07-05T00:43:26.515Z,56.00
2018-07-05T00:47:41.203Z,57.10
2018-07-05T00:51:55.887Z,57.10
2018-07-05T00:56:10.624Z,57.40
2018-07-05T01:00:25.125Z,55.90
2018-07-05T01:04:39.698Z,57.50
2018-07-05T01:08:54.307Z,55.80
2018-07-05T01:13:08.862Z,59.70
2018-07-05T01:17:23.516Z,57.70
2018-07-05T01:21:38.214Z,60.90
2018-07-05T01:25:52.808Z,56.10
2018-07-05T01:30:08.107Z,58.40
2018-07-05T01:34:22.767Z,58.70
2018-07-05T01:38:37.311Z,57.50
2018-07-05T01:42:51.721Z,58.10
2018-07-05T01:47:06.461Z,57.50
2018-07-05T01:51:21.138Z,57.80
2018-07-05T01:55:35.751Z,57.30
2018-07-05T01:59:50.395Z,58.60
2018-07-05T02:04:04.988Z,59.00
2018-07-05T02:08:19.650Z,58.00
2018-07-05T02:12:34.260Z,57.30
2018-07-05T02:16:48.744Z,60.80
2018-07-05T02:21:03.427Z,58.90
2018-07-05T02:25:18.047Z,58.40
2018-07-05T02:29:32.783Z,59.10
2018-07-05T02:33:47.836Z,58.80
2018-07-05T02:38:07.799Z,58.30
2018-07-05T02:42:22.312Z,59.20
2018-07-05T02:46:36.873Z,62.10
2018-07-05T02:50:52.339Z,60.00
2018-07-05T02:55:06.793Z,58.80
2018-07-05T02:59:21.470Z,60.20
2018-07-05T03:03:36.049Z,61.20
2018-07-05T03:07:50.610Z,60.30
2018-07-05T03:12:05.331Z,58.30
2018-07-05T03:16:19.975Z,61.00
2018-07-05T03:20:34.615Z,62.30
2018-07-05T03:24:49.213Z,61.60
2018-07-05T03:29:03.836Z,58.90
2018-07-05T03:33:18.412Z,59.10
2018-07-05T03:37:32.963Z,61.20
2018-07-05T03:41:47.625Z,59.80
2018-07-05T03:46:02.086Z,58.60
2018-07-05T03:50:16.568Z,61.00
2018-07-05T03:54:31.275Z,61.00
2018-07-05T03:58:45.859Z,59.00
2018-07-05T04:03:00.503Z,60.00
2018-07-05T04:07:15.031Z,63.50
2018-07-05T04:11:29.588Z,59.90
2018-07-05T04:15:44.283Z,59.10
2018-07-05T04:19:59.026Z,62.10
2018-07-05T04:24:14.312Z,62.30
2018-07-05T04:28:28.988Z,61.10
2018-07-05T04:32:43.583Z,64.30
2018-07-05T04:36:58.299Z,60.80
2018-07-05T04:41:13.111Z,61.90
2018-07-05T04:45:28.005Z,60.30
2018-07-05T04:49:42.698Z,59.90
2018-07-05T04:53:57.417Z,60.50
2018-07-05T04:58:12.093Z,62.40
2018-07-05T05:02:26.822Z,61.70
2018-07-05T05:06:41.486Z,61.80
2018-07-05T05:10:56.128Z,63.00
2018-07-05T05:15:10.908Z,60.20
2018-07-05T05:19:25.663Z,59.10
2018-07-05T05:23:40.160Z,62.00
2018-07-05T05:27:54.785Z,63.30
2018-07-05T05:32:09.587Z,59.60
2018-07-05T05:40:32.966Z,59.20
2018-07-05T05:44:47.755Z,65.20
2018-07-05T05:53:11.282Z,65.00
2018-07-05T05:57:25.892Z,59.30
2018-07-05T06:01:40.451Z,63.00
2018-07-05T06:05:55.059Z,58.80
2018-07-05T06:10:09.662Z,59.60
2018-07-05T06:14:24.422Z,60.50
2018-07-05T06:18:38.963Z,58.50
2018-07-05T06:22:53.627Z,58.60
2018-07-05T06:27:08.216Z,59.10
2018-07-05T06:31:23.051Z,61.10
2018-07-05T06:35:37.759Z,62.40
2018-07-05T06:39:53.440Z,58.40
2018-07-05T06:44:08.003Z,58.50
2018-07-05T06:48:22.671Z,59.30
2018-07-05T06:52:37.327Z,60.20
2018-07-05T06:56:52.160Z,59.20
2018-07-05T07:01:06.696Z,62.10
2018-07-05T07:05:21.212Z,59.60
2018-07-05T07:09:35.900Z,65.20
2018-07-05T07:13:50.620Z,60.50
2018-07-05T07:18:05.300Z,61.50
2018-07-05T07:22:19.879Z,58.30
2018-07-05T07:26:34.584Z,61.10
2018-07-05T07:30:49.263Z,59.00
2018-07-05T07:35:03.867Z,57.20
2018-07-05T07:39:18.563Z,58.30
2018-07-05T07:43:20.879Z,59.50
2018-07-05T07:47:23.188Z,60.50
2018-07-05T07:51:25.596Z,60.20
2018-07-05T07:55:27.881Z,57.70
2018-07-05T07:59:30.182Z,58.40
2018-07-05T08:03:32.509Z,58.80
2018-07-05T08:07:34.820Z,57.70
2018-07-05T08:11:37.143Z,57.70
2018-07-05T08:15:40.755Z,58.20
2018-07-05T08:19:43.081Z,58.00
2018-07-05T08:23:45.434Z,59.40
2018-07-05T08:27:47.796Z,57.50
2018-07-05T08:31:50.138Z,57.20
2018-07-05T08:35:52.457Z,61.60
2018-07-05T08:39:54.775Z,60.40
2018-07-05T08:43:57.116Z,57.90
2018-07-05T08:47:59.436Z,60.40
2018-07-05T08:52:01.722Z,57.60
2018-07-05T08:56:04.059Z,58.80
2018-07-05T09:00:06.364Z,59.90
2018-07-05T09:04:08.661Z,58.20
2018-07-05T09:08:10.976Z,58.10
2018-07-05T09:12:13.267Z,59.50
2018-07-05T09:16:15.584Z,58.70
2018-07-05T09:20:17.894Z,58.80
2018-07-05T09:24:20.519Z,57.50
2018-07-05T09:28:22.810Z,58.50
2018-07-05T09:32:25.147Z,58.30
2018-07-05T09:36:27.452Z,58.00
2018-07-05T09:40:29.775Z,58.10
2018-07-05T09:44:32.108Z,57.90
2018-07-05T09:48:34.508Z,58.50
2018-07-05T09:52:36.898Z,58.00
2018-07-05T09:56:39.133Z,57.70
2018-07-05T10:00:46.869Z,57.70
2018-07-05T10:04:49.326Z,57.90
2018-07-05T10:08:51.723Z,57.60
2018-07-05T10:12:54.090Z,57.50
2018-07-05T10:16:56.350Z,57.30
2018-07-05T10:20:58.647Z,57.30
2018-07-05T10:25:00.942Z,57.50
2018-07-05T10:29:15.673Z,57.10
2018-07-05T10:33:30.452Z,56.50
2018-07-05T10:37:32.747Z,57.10
2018-07-05T10:41:47.356Z,56.90
2018-07-05T10:46:02.336Z,56.90
2018-07-05T10:50:16.947Z,55.90
2018-07-05T10:54:31.723Z,56.10
2018-07-05T10:58:46.227Z,55.90
2018-07-05T11:03:00.753Z,56.20
2018-07-05T11:07:15.295Z,56.30
2018-07-05T11:11:30.166Z,54.80
2018-07-05T11:15:44.796Z,55.40
2018-07-05T11:19:59.516Z,55.90
2018-07-05T11:24:14.188Z,55.10
2018-07-05T11:28:28.777Z,54.40
2018-07-05T11:32:43.423Z,53.30
2018-07-05T11:36:58.140Z,55.50
2018-07-05T11:41:12.792Z,55.20
2018-07-05T11:45:27.408Z,53.90
2018-07-05T11:49:42.033Z,54.00
2018-07-05T11:53:56.775Z,54.70
2018-07-05T11:58:11.471Z,54.10
2018-07-05T12:02:26.192Z,54.20
2018-07-05T12:06:40.865Z,52.80
2018-07-05T12:10:55.503Z,54.10
2018-07-05T12:15:10.065Z,54.50
2018-07-05T12:19:24.604Z,53.20
2018-07-05T12:23:39.298Z,54.30
2018-07-05T12:27:54.409Z,50.70
2018-07-05T12:32:09.335Z,53.20
2018-07-05T12:36:23.890Z,52.00
2018-07-05T12:40:38.555Z,52.70
2018-07-05T12:44:53.216Z,51.30
2018-07-05T12:49:08.066Z,52.30
2018-07-05T12:53:22.758Z,52.50
2018-07-05T12:57:37.529Z,52.10
2018-07-05T13:01:52.176Z,52.00
2018-07-05T13:06:06.607Z,51.10
2018-07-05T13:10:21.400Z,51.60
2018-07-05T13:14:36.005Z,51.20
2018-07-05T13:18:50.418Z,50.20
2018-07-05T13:27:13.646Z,51.00
2018-07-05T13:31:28.365Z,51.10
2018-07-05T13:35:43.003Z,48.20
2018-07-05T13:39:57.702Z,45.60
2018-07-05T13:44:12.430Z,50.40
2018-07-05T13:48:27.112Z,48.90
2018-07-05T13:52:41.651Z,48.90
2018-07-05T13:56:56.163Z,46.70
2018-07-05T14:01:10.946Z,48.20
2018-07-05T14:09:35.285Z,47.60
2018-07-05T14:13:50.563Z,48.80
2018-07-05T14:18:06.168Z,49.20
2018-07-05T14:22:21.553Z,46.60
2018-07-05T14:26:36.744Z,44.60
2018-07-05T14:30:51.282Z,49.10
2018-07-05T14:35:05.831Z,43.70
2018-07-05T14:39:20.410Z,48.60
2018-07-05T14:43:35.060Z,48.30
2018-07-05T14:51:58.267Z,44.60
2018-07-05T14:56:12.836Z,45.90
2018-07-05T15:00:27.397Z,47.20
2018-07-05T15:04:41.798Z,47.30
2018-07-05T15:08:56.456Z,46.30
2018-07-05T15:13:10.968Z,46.80
2018-07-05T15:17:25.543Z,47.90
2018-07-05T15:21:40.462Z,48.30
2018-07-05T15:25:55.723Z,45.30
2018-07-05T15:30:12.428Z,45.30
2018-07-05T15:34:28.953Z,46.80
2018-07-05T15:38:46.045Z,45.50
2018-07-05T15:43:05.140Z,46.70
2018-07-05T15:47:23.384Z,46.90
2018-07-05T15:51:42.467Z,45.70
2018-07-05T15:55:58.380Z,46.20
2018-07-05T16:00:14.381Z,45.00
2018-07-05T16:04:32.488Z,44.20
2018-07-05T16:08:49.984Z,45.70
2018-07-05T16:13:04.908Z,45.70
2018-07-05T16:17:19.667Z,45.20
2018-07-05T16:21:35.101Z,44.50
2018-07-05T16:25:49.722Z,45.80
2018-07-05T16:30:04.863Z,48.00
2018-07-05T16:34:19.524Z,46.50
2018-07-05T16:38:34.041Z,45.50
2018-07-05T16:42:48.693Z,46.80
2018-07-05T16:47:03.405Z,44.90
2018-07-05T16:51:18.030Z,45.20
2018-07-05T16:55:32.799Z,47.80
2018-07-05T16:59:47.378Z,47.50
2018-07-05T17:04:01.984Z,47.20
2018-07-05T17:08:16.445Z,47.10
2018-07-05T17:12:31.021Z,46.40
2018-07-05T17:16:45.521Z,46.50
2018-07-05T17:21:00.014Z,47.40
2018-07-05T17:25:14.567Z,47.70
2018-07-05T17:29:29.151Z,47.90
2018-07-05T17:33:44.069Z,48.40
2018-07-05T17:37:58.737Z,48.60
2018-07-05T17:42:13.261Z,48.70
2018-07-05T17:46:28.205Z,49.10
2018-07-05T17:50:42.894Z,49.50
2018-07-05T17:54:57.498Z,49.30
2018-07-05T17:59:12.051Z,49.50
2018-07-05T18:03:26.663Z,50.50
2018-07-05T18:07:41.281Z,50.70
2018-07-05T18:11:56.075Z,50.80
2018-07-05T18:16:10.516Z,51.20
2018-07-05T18:20:25.064Z,50.40
2018-07-05T18:24:39.727Z,51.30
2018-07-05T18:28:54.244Z,51.80
2018-07-05T18:33:08.824Z,50.60
2018-07-05T18:37:23.300Z,51.70
2018-07-05T18:41:37.851Z,51.50
2018-07-05T18:45:52.357Z,51.40
2018-07-05T18:50:06.825Z,52.00
2018-07-05T18:54:21.381Z,50.80
2018-07-05T18:58:37.099Z,52.50
2018-07-05T19:02:51.774Z,53.00
2018-07-05T19:07:06.320Z,52.20
2018-07-05T19:11:20.856Z,53.80
2018-07-05T19:15:35.408Z,53.50
2018-07-05T19:19:49.962Z,53.30
2018-07-05T19:24:04.534Z,52.70
2018-07-05T19:28:19.189Z,53.20
2018-07-05T19:32:33.961Z,53.60
2018-07-05T19:36:48.396Z,53.10
2018-07-05T19:41:03.143Z,52.90
2018-07-05T19:45:17.693Z,52.80
2018-07-05T19:49:32.257Z,53.50
2018-07-05T19:53:46.733Z,53.60
2018-07-05T20:02:09.754Z,54.30
2018-07-05T20:06:24.240Z,53.30
2018-07-05T20:10:38.850Z,53.60
2018-07-05T20:14:53.440Z,53.50
2018-07-05T20:19:07.984Z,53.50
2018-07-05T20:23:22.436Z,54.30
2018-07-05T20:27:36.892Z,54.60
2018-07-05T20:31:51.503Z,54.70
2018-07-05T20:36:06.063Z,56.10
2018-07-05T20:40:21.195Z,54.80
2018-07-05T20:44:35.662Z,54.00
2018-07-05T20:48:50.312Z,57.10
2018-07-05T20:53:04.841Z,54.10
2018-07-05T20:57:19.340Z,54.70
2018-07-05T21:01:34.584Z,56.50
2018-07-05T21:05:49.117Z,56.20
2018-07-05T21:10:03.858Z,56.20
2018-07-05T21:14:18.406Z,56.60
2018-07-05T21:18:33.079Z,55.70
2018-07-05T21:22:47.651Z,55.30
2018-07-05T21:27:02.221Z,54.40
2018-07-05T21:31:16.823Z,56.40
2018-07-05T21:35:31.508Z,58.30
2018-07-05T21:39:46.125Z,57.10
2018-07-05T21:44:00.939Z,57.40
2018-07-05T21:48:15.489Z,57.50
2018-07-05T21:52:30.634Z,57.50
2018-07-05T21:56:45.191Z,57.10
2018-07-05T22:01:00.051Z,59.00
2018-07-05T22:05:14.540Z,55.90
2018-07-05T22:09:29.143Z,56.70
2018-07-05T22:13:43.783Z,57.70
2018-07-05T22:18:03.876Z,57.10
2018-07-05T22:22:23.874Z,57.50
2018-07-05T22:26:45.850Z,57.50
2018-07-05T22:31:05.957Z,58.60
2018-07-05T22:35:21.170Z,61.10
2018-07-05T22:39:35.868Z,56.10
2018-07-05T22:43:50.658Z,57.50
2018-07-05T22:48:05.456Z,56.40
2018-07-05T22:52:20.051Z,57.20
2018-07-05T22:56:34.802Z,56.60
2018-07-05T23:00:49.499Z,59.40
2018-07-05T23:05:05.064Z,57.30
2018-07-05T23:09:19.715Z,59.30
2018-07-05T23:13:34.279Z,60.40
2018-07-05T23:17:48.981Z,59.30
2018-07-05T23:22:03.760Z,59.10
2018-07-05T23:26:18.420Z,58.20
2018-07-05T23:30:32.996Z,58.60
2018-07-05T23:34:47.692Z,58.60
2018-07-05T23:39:02.687Z,59.60
2018-07-05T23:43:17.261Z,59.90
2018-07-05T23:47:31.829Z,59.40
2018-07-05T23:51:46.501Z,58.70
2018-07-05T23:56:00.924Z,59.00
